Terminal Aerodrome Forecast
Issued by NWS

Home | Current Version | Previous Version | Text Only | Print | Product List | Glossary On
Versions: 1 2 3 4 5 6 7 8 9 10 11 12
000
FTUS46 KSGX 162332
TAFCRQ
TAF
KCRQ 162332Z 1700/1724 24009KT P6SM SKC
     FM170100 VRB04KT P6SM SCT015
     FM170530 VRB04KT P6SM OVC015
     FM171600 VRB04KT P6SM SCT015
     FM171900 24009KT P6SM FEW020=

USA.gov is the U.S. government's official web portal to all federal, state and local government web resources and services.